<?xml version="1.0" encoding="UTF-8" standalone="no" ?>
<gpx xmlns="http://www.topografix.com/GPX/1/1" xmlns:xsi="http://www.w3.org/2001/XMLSchema-instance" xsi:schemaLocation="http://www.topografix.com/GPX/1/1 http://www.topografix.com/GPX/1/1/gpx.xsd" version="1.1" creator="VisuGPX - https://www.visugpx.com">
  <metadata>
    <name>Deuxième circuit CLM du 24/09/2023 vierge</name>
  </metadata>
  <trk>
    <name><![CDATA[Deuxième circuit CLM du 24/09/2023]]></name>
    <extensions>
      <line xmlns="http://www.topografix.com/GPX/gpx_style/0/2">
        <color>0000FF</color>
        <width>4</width>
      </line>
    </extensions>
    <trkseg>
      <trkpt lat="48.6039" lon="-3.01528">
        <ele>97</ele>
        <time>2023-01-31T17:55:49.000Z</time>
      </trkpt>
      <trkpt lat="48.6039" lon="-3.01528">
        <ele>97</ele>
        <time>2023-01-31T17:55:49.000Z</time>
        <extensions>
          <visugpx:TrkExtension xmlns:visugpx="https://www.visugpx.com/editgpx/">
            <visugpx:node>1</visugpx:node>
            </visugpx:TrkExtension>
        </extensions>
      </trkpt>
      <trkpt lat="48.60409" lon="-3.01548">
        <ele>97</ele>
        <time>2023-01-31T17:55:51.089Z</time>
      </trkpt>
      <trkpt lat="48.60435" lon="-3.01574">
        <ele>97</ele>
        <time>2023-01-31T17:55:53.901Z</time>
      </trkpt>
      <trkpt lat="48.60452" lon="-3.01596">
        <ele>97</ele>
        <time>2023-01-31T17:55:55.920Z</time>
      </trkpt>
      <trkpt lat="48.60467" lon="-3.01621">
        <ele>96.6</ele>
        <time>2023-01-31T17:55:57.635Z</time>
      </trkpt>
      <trkpt lat="48.60493" lon="-3.01657">
        <ele>95.5</ele>
        <time>2023-01-31T17:56:00.067Z</time>
      </trkpt>
      <trkpt lat="48.60511" lon="-3.01681">
        <ele>94</ele>
        <time>2023-01-31T17:56:01.400Z</time>
      </trkpt>
      <trkpt lat="48.60516" lon="-3.01688">
        <ele>93.8</ele>
        <time>2023-01-31T17:56:01.877Z</time>
      </trkpt>
      <trkpt lat="48.60515" lon="-3.01692">
        <ele>93.6</ele>
        <time>2023-01-31T17:56:02.030Z</time>
      </trkpt>
      <trkpt lat="48.60483" lon="-3.01748">
        <ele>91.1</ele>
        <time>2023-01-31T17:56:04.956Z</time>
      </trkpt>
      <trkpt lat="48.60469" lon="-3.01772">
        <ele>90.3</ele>
        <time>2023-01-31T17:56:06.346Z</time>
      </trkpt>
      <trkpt lat="48.60459" lon="-3.01784">
        <ele>90.6</ele>
        <time>2023-01-31T17:56:07.812Z</time>
      </trkpt>
      <trkpt lat="48.60451" lon="-3.0179">
        <ele>91.1</ele>
        <time>2023-01-31T17:56:09.330Z</time>
      </trkpt>
      <trkpt lat="48.60454" lon="-3.01797">
        <ele>91.1</ele>
        <time>2023-01-31T17:56:09.828Z</time>
      </trkpt>
      <trkpt lat="48.60461" lon="-3.01811">
        <ele>91</ele>
        <time>2023-01-31T17:56:10.795Z</time>
      </trkpt>
      <trkpt lat="48.60467" lon="-3.01817">
        <ele>90.8</ele>
        <time>2023-01-31T17:56:11.305Z</time>
      </trkpt>
      <trkpt lat="48.60471" lon="-3.01819">
        <ele>90.6</ele>
        <time>2023-01-31T17:56:11.563Z</time>
      </trkpt>
      <trkpt lat="48.60477" lon="-3.01819">
        <ele>90.3</ele>
        <time>2023-01-31T17:56:11.924Z</time>
      </trkpt>
      <trkpt lat="48.60501" lon="-3.0182">
        <ele>89.5</ele>
        <time>2023-01-31T17:56:13.554Z</time>
      </trkpt>
      <trkpt lat="48.60521" lon="-3.0182">
        <ele>88.4</ele>
        <time>2023-01-31T17:56:14.719Z</time>
      </trkpt>
      <trkpt lat="48.60527" lon="-3.01822">
        <ele>88.2</ele>
        <time>2023-01-31T17:56:15.139Z</time>
      </trkpt>
      <trkpt lat="48.60558" lon="-3.01832">
        <ele>86.9</ele>
        <time>2023-01-31T17:56:17.172Z</time>
      </trkpt>
      <trkpt lat="48.60606" lon="-3.01846">
        <ele>84.7</ele>
        <time>2023-01-31T17:56:20.220Z</time>
      </trkpt>
      <trkpt lat="48.60633" lon="-3.01853">
        <ele>83</ele>
        <time>2023-01-31T17:56:21.745Z</time>
      </trkpt>
      <trkpt lat="48.60639" lon="-3.01854">
        <ele>82.6</ele>
        <time>2023-01-31T17:56:22.073Z</time>
      </trkpt>
      <trkpt lat="48.6065" lon="-3.01855">
        <ele>81.7</ele>
        <time>2023-01-31T17:56:22.670Z</time>
      </trkpt>
      <trkpt lat="48.6066" lon="-3.01856">
        <ele>81</ele>
        <time>2023-01-31T17:56:23.212Z</time>
      </trkpt>
      <trkpt lat="48.6069" lon="-3.01852">
        <ele>79.6</ele>
        <time>2023-01-31T17:56:25.070Z</time>
      </trkpt>
      <trkpt lat="48.60696" lon="-3.01852">
        <ele>79.3</ele>
        <time>2023-01-31T17:56:25.432Z</time>
      </trkpt>
      <trkpt lat="48.60711" lon="-3.0185">
        <ele>78.8</ele>
        <time>2023-01-31T17:56:26.455Z</time>
      </trkpt>
      <trkpt lat="48.60712" lon="-3.01845">
        <ele>79</ele>
        <time>2023-01-31T17:56:27.057Z</time>
      </trkpt>
      <trkpt lat="48.6069" lon="-3.01829">
        <ele>81</ele>
        <time>2023-01-31T17:56:32.945Z</time>
      </trkpt>
      <trkpt lat="48.60656" lon="-3.01805">
        <ele>85.4</ele>
        <time>2023-01-31T17:56:46.513Z</time>
      </trkpt>
      <trkpt lat="48.60625" lon="-3.01781">
        <ele>88.7</ele>
        <time>2023-01-31T17:56:56.460Z</time>
      </trkpt>
      <trkpt lat="48.60613" lon="-3.01773">
        <ele>90</ele>
        <time>2023-01-31T17:57:00.414Z</time>
      </trkpt>
      <trkpt lat="48.606" lon="-3.01764">
        <ele>90.7</ele>
        <time>2023-01-31T17:57:02.635Z</time>
      </trkpt>
      <trkpt lat="48.6059" lon="-3.01758">
        <ele>91.3</ele>
        <time>2023-01-31T17:57:04.459Z</time>
      </trkpt>
      <trkpt lat="48.60571" lon="-3.01751">
        <ele>91.9</ele>
        <time>2023-01-31T17:57:06.893Z</time>
      </trkpt>
      <trkpt lat="48.6056" lon="-3.01746">
        <ele>92.3</ele>
        <time>2023-01-31T17:57:08.394Z</time>
      </trkpt>
      <trkpt lat="48.60554" lon="-3.0174">
        <ele>92.7</ele>
        <time>2023-01-31T17:57:09.611Z</time>
      </trkpt>
      <trkpt lat="48.60548" lon="-3.01732">
        <ele>93.1</ele>
        <time>2023-01-31T17:57:10.870Z</time>
      </trkpt>
      <trkpt lat="48.60531" lon="-3.01708">
        <ele>93.6</ele>
        <time>2023-01-31T17:57:13.483Z</time>
      </trkpt>
      <trkpt lat="48.60522" lon="-3.01697">
        <ele>93.7</ele>
        <time>2023-01-31T17:57:14.619Z</time>
      </trkpt>
      <trkpt lat="48.60521" lon="-3.01695">
        <ele>93.7</ele>
        <time>2023-01-31T17:57:14.768Z</time>
      </trkpt>
      <trkpt lat="48.6052" lon="-3.01688">
        <ele>93.9</ele>
        <time>2023-01-31T17:57:15.445Z</time>
      </trkpt>
      <trkpt lat="48.60547" lon="-3.01648">
        <ele>93.7</ele>
        <time>2023-01-31T17:57:18.690Z</time>
      </trkpt>
      <trkpt lat="48.6057" lon="-3.01613">
        <ele>92.5</ele>
        <time>2023-01-31T17:57:20.849Z</time>
      </trkpt>
      <trkpt lat="48.60584" lon="-3.01592">
        <ele>91.3</ele>
        <time>2023-01-31T17:57:21.955Z</time>
      </trkpt>
      <trkpt lat="48.60598" lon="-3.01568">
        <ele>91</ele>
        <time>2023-01-31T17:57:23.634Z</time>
      </trkpt>
      <trkpt lat="48.60622" lon="-3.01526">
        <ele>90.7</ele>
        <time>2023-01-31T17:57:26.704Z</time>
      </trkpt>
      <trkpt lat="48.60629" lon="-3.01513">
        <ele>90.6</ele>
        <time>2023-01-31T17:57:27.625Z</time>
      </trkpt>
      <trkpt lat="48.6064" lon="-3.01492">
        <ele>90.3</ele>
        <time>2023-01-31T17:57:28.997Z</time>
      </trkpt>
      <trkpt lat="48.60657" lon="-3.01461">
        <ele>91.9</ele>
        <time>2023-01-31T17:57:33.775Z</time>
      </trkpt>
      <trkpt lat="48.60671" lon="-3.01434">
        <ele>92.3</ele>
        <time>2023-01-31T17:57:36.220Z</time>
      </trkpt>
      <trkpt lat="48.60674" lon="-3.01429">
        <ele>92.4</ele>
        <time>2023-01-31T17:57:36.726Z</time>
      </trkpt>
      <trkpt lat="48.60689" lon="-3.0141">
        <ele>92.4</ele>
        <time>2023-01-31T17:57:38.492Z</time>
      </trkpt>
      <trkpt lat="48.60697" lon="-3.01399">
        <ele>92.6</ele>
        <time>2023-01-31T17:57:39.668Z</time>
      </trkpt>
      <trkpt lat="48.60699" lon="-3.01393">
        <ele>92.9</ele>
        <time>2023-01-31T17:57:40.548Z</time>
      </trkpt>
      <trkpt lat="48.60701" lon="-3.01387">
        <ele>93</ele>
        <time>2023-01-31T17:57:41.053Z</time>
      </trkpt>
      <trkpt lat="48.60709" lon="-3.01369">
        <ele>92.2</ele>
        <time>2023-01-31T17:57:41.884Z</time>
      </trkpt>
      <trkpt lat="48.6072" lon="-3.01329">
        <ele>91.2</ele>
        <time>2023-01-31T17:57:43.806Z</time>
      </trkpt>
      <trkpt lat="48.60734" lon="-3.01273">
        <ele>91.7</ele>
        <time>2023-01-31T17:57:47.854Z</time>
      </trkpt>
      <trkpt lat="48.60739" lon="-3.01249">
        <ele>91.8</ele>
        <time>2023-01-31T17:57:49.445Z</time>
      </trkpt>
      <trkpt lat="48.60745" lon="-3.0122">
        <ele>91.6</ele>
        <time>2023-01-31T17:57:51.099Z</time>
      </trkpt>
      <trkpt lat="48.6075" lon="-3.01195">
        <ele>91</ele>
        <time>2023-01-31T17:57:52.259Z</time>
      </trkpt>
      <trkpt lat="48.60762" lon="-3.01156">
        <ele>92.5</ele>
        <time>2023-01-31T17:57:56.895Z</time>
      </trkpt>
      <trkpt lat="48.60772" lon="-3.01122">
        <ele>92.6</ele>
        <time>2023-01-31T17:57:59.204Z</time>
      </trkpt>
      <trkpt lat="48.60783" lon="-3.01086">
        <ele>93.7</ele>
        <time>2023-01-31T17:58:02.936Z</time>
      </trkpt>
      <trkpt lat="48.60791" lon="-3.01061">
        <ele>94</ele>
        <time>2023-01-31T17:58:04.888Z</time>
      </trkpt>
      <trkpt lat="48.60795" lon="-3.01028">
        <ele>94.8</ele>
        <time>2023-01-31T17:58:07.829Z</time>
      </trkpt>
      <trkpt lat="48.60797" lon="-3.01011">
        <ele>94.6</ele>
        <time>2023-01-31T17:58:08.709Z</time>
      </trkpt>
      <trkpt lat="48.60799" lon="-3.00975">
        <ele>95.2</ele>
        <time>2023-01-31T17:58:11.501Z</time>
      </trkpt>
      <trkpt lat="48.60801" lon="-3.00941">
        <ele>95.2</ele>
        <time>2023-01-31T17:58:13.538Z</time>
      </trkpt>
      <trkpt lat="48.60801" lon="-3.00931">
        <ele>95.2</ele>
        <time>2023-01-31T17:58:14.134Z</time>
      </trkpt>
      <trkpt lat="48.60802" lon="-3.00924">
        <ele>95.1</ele>
        <time>2023-01-31T17:58:14.488Z</time>
      </trkpt>
      <trkpt lat="48.60813" lon="-3.00864">
        <ele>95.7</ele>
        <time>2023-01-31T17:58:18.784Z</time>
      </trkpt>
      <trkpt lat="48.6082" lon="-3.0082">
        <ele>96.5</ele>
        <time>2023-01-31T17:58:22.345Z</time>
      </trkpt>
      <trkpt lat="48.60821" lon="-3.0081">
        <ele>96.5</ele>
        <time>2023-01-31T17:58:22.949Z</time>
      </trkpt>
      <trkpt lat="48.60824" lon="-3.00764">
        <ele>95.7</ele>
        <time>2023-01-31T17:58:25.143Z</time>
      </trkpt>
      <trkpt lat="48.60827" lon="-3.00722">
        <ele>95.2</ele>
        <time>2023-01-31T17:58:27.289Z</time>
      </trkpt>
      <trkpt lat="48.60831" lon="-3.00675">
        <ele>95.1</ele>
        <time>2023-01-31T17:58:30.032Z</time>
      </trkpt>
      <trkpt lat="48.60834" lon="-3.00646">
        <ele>95</ele>
        <time>2023-01-31T17:58:31.701Z</time>
      </trkpt>
      <trkpt lat="48.60836" lon="-3.00627">
        <ele>95.1</ele>
        <time>2023-01-31T17:58:32.940Z</time>
      </trkpt>
      <trkpt lat="48.60838" lon="-3.00617">
        <ele>95.2</ele>
        <time>2023-01-31T17:58:33.660Z</time>
      </trkpt>
      <trkpt lat="48.60845" lon="-3.00586">
        <ele>95.4</ele>
        <time>2023-01-31T17:58:35.800Z</time>
      </trkpt>
      <trkpt lat="48.60852" lon="-3.0056">
        <ele>95.1</ele>
        <time>2023-01-31T17:58:37.247Z</time>
      </trkpt>
      <trkpt lat="48.60857" lon="-3.00543">
        <ele>94.5</ele>
        <time>2023-01-31T17:58:37.994Z</time>
      </trkpt>
      <trkpt lat="48.60908" lon="-3.00431">
        <ele>93</ele>
        <time>2023-01-31T17:58:44.975Z</time>
      </trkpt>
      <trkpt lat="48.60958" lon="-3.00321">
        <ele>92.7</ele>
        <time>2023-01-31T17:58:52.688Z</time>
      </trkpt>
      <trkpt lat="48.60996" lon="-3.00243">
        <ele>92</ele>
        <time>2023-01-31T17:58:57.916Z</time>
      </trkpt>
      <trkpt lat="48.61009" lon="-3.00213">
        <ele>92</ele>
        <time>2023-01-31T17:59:00.056Z</time>
      </trkpt>
      <trkpt lat="48.61017" lon="-3.00199">
        <ele>92</ele>
        <time>2023-01-31T17:59:01.159Z</time>
      </trkpt>
      <trkpt lat="48.61017" lon="-3.00192">
        <ele>91.9</ele>
        <time>2023-01-31T17:59:01.504Z</time>
      </trkpt>
      <trkpt lat="48.61015" lon="-3.00186">
        <ele>91.5</ele>
        <time>2023-01-31T17:59:01.745Z</time>
      </trkpt>
      <trkpt lat="48.60993" lon="-3.00154">
        <ele>91.7</ele>
        <time>2023-01-31T17:59:04.680Z</time>
      </trkpt>
      <trkpt lat="48.60984" lon="-3.00141">
        <ele>92</ele>
        <time>2023-01-31T17:59:06.118Z</time>
      </trkpt>
      <trkpt lat="48.6097" lon="-3.00117">
        <ele>92</ele>
        <time>2023-01-31T17:59:08.027Z</time>
      </trkpt>
      <trkpt lat="48.6096" lon="-3.001">
        <ele>92</ele>
        <time>2023-01-31T17:59:09.385Z</time>
      </trkpt>
      <trkpt lat="48.60956" lon="-3.00094">
        <ele>92</ele>
        <time>2023-01-31T17:59:09.893Z</time>
      </trkpt>
      <trkpt lat="48.6095" lon="-3.00087">
        <ele>92</ele>
        <time>2023-01-31T17:59:10.577Z</time>
      </trkpt>
      <trkpt lat="48.60942" lon="-3.00078">
        <ele>92.3</ele>
        <time>2023-01-31T17:59:11.810Z</time>
      </trkpt>
      <trkpt lat="48.60938" lon="-3.00075">
        <ele>92.4</ele>
        <time>2023-01-31T17:59:12.316Z</time>
      </trkpt>
      <trkpt lat="48.6093" lon="-3.00071">
        <ele>92.5</ele>
        <time>2023-01-31T17:59:13.171Z</time>
      </trkpt>
      <trkpt lat="48.60926" lon="-3.0007">
        <ele>92.5</ele>
        <time>2023-01-31T17:59:13.537Z</time>
      </trkpt>
      <trkpt lat="48.60921" lon="-3.00069">
        <ele>92.5</ele>
        <time>2023-01-31T17:59:13.992Z</time>
      </trkpt>
      <trkpt lat="48.609" lon="-3.00068">
        <ele>92.8</ele>
        <time>2023-01-31T17:59:16.177Z</time>
      </trkpt>
      <trkpt lat="48.60892" lon="-3.00066">
        <ele>92.9</ele>
        <time>2023-01-31T17:59:17.003Z</time>
      </trkpt>
      <trkpt lat="48.60879" lon="-3.00064">
        <ele>92.6</ele>
        <time>2023-01-31T17:59:17.966Z</time>
      </trkpt>
      <trkpt lat="48.60867" lon="-3.00062">
        <ele>92.2</ele>
        <time>2023-01-31T17:59:18.787Z</time>
      </trkpt>
      <trkpt lat="48.60863" lon="-3.0006">
        <ele>92.1</ele>
        <time>2023-01-31T17:59:19.096Z</time>
      </trkpt>
      <trkpt lat="48.60864" lon="-3.00053">
        <ele>92.2</ele>
        <time>2023-01-31T17:59:19.625Z</time>
      </trkpt>
      <trkpt lat="48.60852" lon="-3.00028">
        <ele>93.3</ele>
        <time>2023-01-31T17:59:23.003Z</time>
      </trkpt>
      <trkpt lat="48.60832" lon="-3.00002">
        <ele>93.1</ele>
        <time>2023-01-31T17:59:25.221Z</time>
      </trkpt>
      <trkpt lat="48.60818" lon="-2.99991">
        <ele>93.5</ele>
        <time>2023-01-31T17:59:27.070Z</time>
      </trkpt>
      <trkpt lat="48.60808" lon="-2.99984">
        <ele>93.4</ele>
        <time>2023-01-31T17:59:27.984Z</time>
      </trkpt>
      <trkpt lat="48.6079" lon="-2.9998">
        <ele>93.3</ele>
        <time>2023-01-31T17:59:29.544Z</time>
      </trkpt>
      <trkpt lat="48.60765" lon="-2.99985">
        <ele>93</ele>
        <time>2023-01-31T17:59:31.584Z</time>
      </trkpt>
      <trkpt lat="48.60752" lon="-2.99977">
        <ele>92.2</ele>
        <time>2023-01-31T17:59:32.391Z</time>
      </trkpt>
      <trkpt lat="48.60738" lon="-2.99944">
        <ele>93</ele>
        <time>2023-01-31T17:59:35.626Z</time>
      </trkpt>
      <trkpt lat="48.60721" lon="-2.99901">
        <ele>91.4</ele>
        <time>2023-01-31T17:59:37.644Z</time>
      </trkpt>
      <trkpt lat="48.60707" lon="-2.9986">
        <ele>91.4</ele>
        <time>2023-01-31T17:59:40.397Z</time>
      </trkpt>
      <trkpt lat="48.60702" lon="-2.99844">
        <ele>90.6</ele>
        <time>2023-01-31T17:59:41.030Z</time>
      </trkpt>
      <trkpt lat="48.60688" lon="-2.99816">
        <ele>90.1</ele>
        <time>2023-01-31T17:59:42.761Z</time>
      </trkpt>
      <trkpt lat="48.60673" lon="-2.99798">
        <ele>89.8</ele>
        <time>2023-01-31T17:59:44.260Z</time>
      </trkpt>
      <trkpt lat="48.60657" lon="-2.99781">
        <ele>89.5</ele>
        <time>2023-01-31T17:59:45.796Z</time>
      </trkpt>
      <trkpt lat="48.60629" lon="-2.99753">
        <ele>89.1</ele>
        <time>2023-01-31T17:59:48.512Z</time>
      </trkpt>
      <trkpt lat="48.60603" lon="-2.99727">
        <ele>88.2</ele>
        <time>2023-01-31T17:59:50.702Z</time>
      </trkpt>
      <trkpt lat="48.60593" lon="-2.99717">
        <ele>88.1</ele>
        <time>2023-01-31T17:59:51.703Z</time>
      </trkpt>
      <trkpt lat="48.60576" lon="-2.99698">
        <ele>88</ele>
        <time>2023-01-31T17:59:53.528Z</time>
      </trkpt>
      <trkpt lat="48.60561" lon="-2.99681">
        <ele>87.6</ele>
        <time>2023-01-31T17:59:54.927Z</time>
      </trkpt>
      <trkpt lat="48.60545" lon="-2.9967">
        <ele>86.7</ele>
        <time>2023-01-31T17:59:55.977Z</time>
      </trkpt>
      <trkpt lat="48.60531" lon="-2.99666">
        <ele>86.1</ele>
        <time>2023-01-31T17:59:56.884Z</time>
      </trkpt>
      <trkpt lat="48.60523" lon="-2.99665">
        <ele>85.8</ele>
        <time>2023-01-31T17:59:57.413Z</time>
      </trkpt>
      <trkpt lat="48.60512" lon="-2.99667">
        <ele>85.4</ele>
        <time>2023-01-31T17:59:58.149Z</time>
      </trkpt>
      <trkpt lat="48.60495" lon="-2.99679">
        <ele>85.4</ele>
        <time>2023-01-31T17:59:59.842Z</time>
      </trkpt>
      <trkpt lat="48.60486" lon="-2.9969">
        <ele>85.8</ele>
        <time>2023-01-31T18:00:01.349Z</time>
      </trkpt>
      <trkpt lat="48.60475" lon="-2.99703">
        <ele>86</ele>
        <time>2023-01-31T18:00:02.802Z</time>
      </trkpt>
      <trkpt lat="48.60472" lon="-2.99697">
        <ele>86</ele>
        <time>2023-01-31T18:00:03.251Z</time>
      </trkpt>
      <trkpt lat="48.60463" lon="-2.99652">
        <ele>85.7</ele>
        <time>2023-01-31T18:00:05.817Z</time>
      </trkpt>
      <trkpt lat="48.60462" lon="-2.99638">
        <ele>85.7</ele>
        <time>2023-01-31T18:00:06.657Z</time>
      </trkpt>
      <trkpt lat="48.60462" lon="-2.99607">
        <ele>85.4</ele>
        <time>2023-01-31T18:00:08.277Z</time>
      </trkpt>
      <trkpt lat="48.60478" lon="-2.99529">
        <ele>83.8</ele>
        <time>2023-01-31T18:00:12.049Z</time>
      </trkpt>
      <trkpt lat="48.60485" lon="-2.99456">
        <ele>81.4</ele>
        <time>2023-01-31T18:00:15.003Z</time>
      </trkpt>
      <trkpt lat="48.60487" lon="-2.99424">
        <ele>80.2</ele>
        <time>2023-01-31T18:00:16.230Z</time>
      </trkpt>
      <trkpt lat="48.60496" lon="-2.99393">
        <ele>78.4</ele>
        <time>2023-01-31T18:00:17.442Z</time>
      </trkpt>
      <trkpt lat="48.6051" lon="-2.99344">
        <ele>77.8</ele>
        <time>2023-01-31T18:00:20.175Z</time>
      </trkpt>
      <trkpt lat="48.6052" lon="-2.99306">
        <ele>76.3</ele>
        <time>2023-01-31T18:00:21.745Z</time>
      </trkpt>
      <trkpt lat="48.6053" lon="-2.99273">
        <ele>75.1</ele>
        <time>2023-01-31T18:00:23.191Z</time>
      </trkpt>
      <trkpt lat="48.60524" lon="-2.99267">
        <ele>75.6</ele>
        <time>2023-01-31T18:00:24.656Z</time>
      </trkpt>
      <trkpt lat="48.60502" lon="-2.99249">
        <ele>77</ele>
        <time>2023-01-31T18:00:28.908Z</time>
      </trkpt>
      <trkpt lat="48.60483" lon="-2.99226">
        <ele>78.5</ele>
        <time>2023-01-31T18:00:33.366Z</time>
      </trkpt>
      <trkpt lat="48.60466" lon="-2.99227">
        <ele>79</ele>
        <time>2023-01-31T18:00:35.453Z</time>
      </trkpt>
      <trkpt lat="48.60452" lon="-2.99227">
        <ele>79.6</ele>
        <time>2023-01-31T18:00:37.468Z</time>
      </trkpt>
      <trkpt lat="48.60428" lon="-2.99233">
        <ele>80</ele>
        <time>2023-01-31T18:00:40.056Z</time>
      </trkpt>
      <trkpt lat="48.60399" lon="-2.99228">
        <ele>80.1</ele>
        <time>2023-01-31T18:00:42.778Z</time>
      </trkpt>
      <trkpt lat="48.60382" lon="-2.99222">
        <ele>79.8</ele>
        <time>2023-01-31T18:00:44.127Z</time>
      </trkpt>
      <trkpt lat="48.60367" lon="-2.99216">
        <ele>79.5</ele>
        <time>2023-01-31T18:00:45.305Z</time>
      </trkpt>
      <trkpt lat="48.60358" lon="-2.99231">
        <ele>78.9</ele>
        <time>2023-01-31T18:00:46.142Z</time>
      </trkpt>
      <trkpt lat="48.6034" lon="-2.9929">
        <ele>77.2</ele>
        <time>2023-01-31T18:00:48.926Z</time>
      </trkpt>
      <trkpt lat="48.60315" lon="-2.9939">
        <ele>80</ele>
        <time>2023-01-31T18:00:58.706Z</time>
      </trkpt>
      <trkpt lat="48.6031" lon="-2.9941">
        <ele>80.1</ele>
        <time>2023-01-31T18:01:00.072Z</time>
      </trkpt>
      <trkpt lat="48.60299" lon="-2.99462">
        <ele>83.3</ele>
        <time>2023-01-31T18:01:09.599Z</time>
      </trkpt>
      <trkpt lat="48.60285" lon="-2.99527">
        <ele>86</ele>
        <time>2023-01-31T18:01:17.672Z</time>
      </trkpt>
      <trkpt lat="48.60277" lon="-2.99568">
        <ele>86</ele>
        <time>2023-01-31T18:01:20.223Z</time>
      </trkpt>
      <trkpt lat="48.6027" lon="-2.99601">
        <ele>85.7</ele>
        <time>2023-01-31T18:01:22.058Z</time>
      </trkpt>
      <trkpt lat="48.60266" lon="-2.99619">
        <ele>85.7</ele>
        <time>2023-01-31T18:01:23.191Z</time>
      </trkpt>
      <trkpt lat="48.60268" lon="-2.99632">
        <ele>85.9</ele>
        <time>2023-01-31T18:01:24.195Z</time>
      </trkpt>
      <trkpt lat="48.60277" lon="-2.99687">
        <ele>86.7</ele>
        <time>2023-01-31T18:01:28.397Z</time>
      </trkpt>
      <trkpt lat="48.6028" lon="-2.99707">
        <ele>86.9</ele>
        <time>2023-01-31T18:01:29.814Z</time>
      </trkpt>
      <trkpt lat="48.60284" lon="-2.99714">
        <ele>86.8</ele>
        <time>2023-01-31T18:01:30.291Z</time>
      </trkpt>
      <trkpt lat="48.60298" lon="-2.99739">
        <ele>86.3</ele>
        <time>2023-01-31T18:01:31.885Z</time>
      </trkpt>
      <trkpt lat="48.60331" lon="-2.99753">
        <ele>86.1</ele>
        <time>2023-01-31T18:01:34.814Z</time>
      </trkpt>
      <trkpt lat="48.60343" lon="-2.99758">
        <ele>86.5</ele>
        <time>2023-01-31T18:01:36.389Z</time>
      </trkpt>
      <trkpt lat="48.6037" lon="-2.99788">
        <ele>86.9</ele>
        <time>2023-01-31T18:01:39.791Z</time>
      </trkpt>
      <trkpt lat="48.60385" lon="-2.99803">
        <ele>86.2</ele>
        <time>2023-01-31T18:01:40.962Z</time>
      </trkpt>
      <trkpt lat="48.60384" lon="-2.99809">
        <ele>86.3</ele>
        <time>2023-01-31T18:01:41.437Z</time>
      </trkpt>
      <trkpt lat="48.60372" lon="-2.99877">
        <ele>87.8</ele>
        <time>2023-01-31T18:01:47.335Z</time>
      </trkpt>
      <trkpt lat="48.60371" lon="-2.9988">
        <ele>87.9</ele>
        <time>2023-01-31T18:01:47.664Z</time>
      </trkpt>
      <trkpt lat="48.60345" lon="-2.99935">
        <ele>88.9</ele>
        <time>2023-01-31T18:01:52.734Z</time>
      </trkpt>
      <trkpt lat="48.60344" lon="-2.9994">
        <ele>88.9</ele>
        <time>2023-01-31T18:01:53.045Z</time>
      </trkpt>
      <trkpt lat="48.60337" lon="-2.9998">
        <ele>90.2</ele>
        <time>2023-01-31T18:01:57.218Z</time>
      </trkpt>
      <trkpt lat="48.60337" lon="-2.99984">
        <ele>90.4</ele>
        <time>2023-01-31T18:01:57.803Z</time>
      </trkpt>
      <trkpt lat="48.60346" lon="-3.00053">
        <ele>91.5</ele>
        <time>2023-01-31T18:02:03.152Z</time>
      </trkpt>
      <trkpt lat="48.60347" lon="-3.00083">
        <ele>92</ele>
        <time>2023-01-31T18:02:05.476Z</time>
      </trkpt>
      <trkpt lat="48.60348" lon="-3.00145">
        <ele>93.6</ele>
        <time>2023-01-31T18:02:11.108Z</time>
      </trkpt>
      <trkpt lat="48.60348" lon="-3.00154">
        <ele>93.8</ele>
        <time>2023-01-31T18:02:11.875Z</time>
      </trkpt>
      <trkpt lat="48.60346" lon="-3.00193">
        <ele>94.5</ele>
        <time>2023-01-31T18:02:14.965Z</time>
      </trkpt>
      <trkpt lat="48.60344" lon="-3.00236">
        <ele>94.2</ele>
        <time>2023-01-31T18:02:17.300Z</time>
      </trkpt>
      <trkpt lat="48.60342" lon="-3.00287">
        <ele>95.5</ele>
        <time>2023-01-31T18:02:21.910Z</time>
      </trkpt>
      <trkpt lat="48.60327" lon="-3.00342">
        <ele>96</ele>
        <time>2023-01-31T18:02:25.936Z</time>
      </trkpt>
      <trkpt lat="48.60316" lon="-3.00382">
        <ele>96</ele>
        <time>2023-01-31T18:02:28.520Z</time>
      </trkpt>
      <trkpt lat="48.60311" lon="-3.004">
        <ele>96</ele>
        <time>2023-01-31T18:02:29.685Z</time>
      </trkpt>
      <trkpt lat="48.60306" lon="-3.00462">
        <ele>97</ele>
        <time>2023-01-31T18:02:34.465Z</time>
      </trkpt>
      <trkpt lat="48.60305" lon="-3.00479">
        <ele>97</ele>
        <time>2023-01-31T18:02:35.483Z</time>
      </trkpt>
      <trkpt lat="48.60305" lon="-3.00542">
        <ele>98</ele>
        <time>2023-01-31T18:02:40.293Z</time>
      </trkpt>
      <trkpt lat="48.60304" lon="-3.00614">
        <ele>98</ele>
        <time>2023-01-31T18:02:44.590Z</time>
      </trkpt>
      <trkpt lat="48.60304" lon="-3.00671">
        <ele>99</ele>
        <time>2023-01-31T18:02:49.066Z</time>
      </trkpt>
      <trkpt lat="48.60303" lon="-3.00701">
        <ele>99</ele>
        <time>2023-01-31T18:02:50.859Z</time>
      </trkpt>
      <trkpt lat="48.60303" lon="-3.00733">
        <ele>98.6</ele>
        <time>2023-01-31T18:02:52.471Z</time>
      </trkpt>
      <trkpt lat="48.60304" lon="-3.00738">
        <ele>98.5</ele>
        <time>2023-01-31T18:02:52.713Z</time>
      </trkpt>
      <trkpt lat="48.60315" lon="-3.00814">
        <ele>98.8</ele>
        <time>2023-01-31T18:02:57.625Z</time>
      </trkpt>
      <trkpt lat="48.60319" lon="-3.00846">
        <ele>99</ele>
        <time>2023-01-31T18:02:59.753Z</time>
      </trkpt>
      <trkpt lat="48.60336" lon="-3.00933">
        <ele>99.5</ele>
        <time>2023-01-31T18:03:05.625Z</time>
      </trkpt>
      <trkpt lat="48.60341" lon="-3.0096">
        <ele>99.3</ele>
        <time>2023-01-31T18:03:07.140Z</time>
      </trkpt>
      <trkpt lat="48.60344" lon="-3.00971">
        <ele>99.4</ele>
        <time>2023-01-31T18:03:07.945Z</time>
      </trkpt>
      <trkpt lat="48.60346" lon="-3.00982">
        <ele>99.5</ele>
        <time>2023-01-31T18:03:08.721Z</time>
      </trkpt>
      <trkpt lat="48.60347" lon="-3.00989">
        <ele>99.5</ele>
        <time>2023-01-31T18:03:09.148Z</time>
      </trkpt>
      <trkpt lat="48.6035" lon="-3.01008">
        <ele>99.4</ele>
        <time>2023-01-31T18:03:10.233Z</time>
      </trkpt>
      <trkpt lat="48.6035" lon="-3.01023">
        <ele>99.1</ele>
        <time>2023-01-31T18:03:10.923Z</time>
      </trkpt>
      <trkpt lat="48.6035" lon="-3.01038">
        <ele>99</ele>
        <time>2023-01-31T18:03:11.738Z</time>
      </trkpt>
      <trkpt lat="48.60347" lon="-3.01069">
        <ele>98.8</ele>
        <time>2023-01-31T18:03:13.449Z</time>
      </trkpt>
      <trkpt lat="48.6034" lon="-3.01089">
        <ele>98.4</ele>
        <time>2023-01-31T18:03:14.518Z</time>
      </trkpt>
      <trkpt lat="48.60337" lon="-3.01099">
        <ele>98.6</ele>
        <time>2023-01-31T18:03:15.390Z</time>
      </trkpt>
      <trkpt lat="48.60329" lon="-3.01127">
        <ele>99</ele>
        <time>2023-01-31T18:03:17.615Z</time>
      </trkpt>
      <trkpt lat="48.60325" lon="-3.01146">
        <ele>99</ele>
        <time>2023-01-31T18:03:18.805Z</time>
      </trkpt>
      <trkpt lat="48.60324" lon="-3.01156">
        <ele>99</ele>
        <time>2023-01-31T18:03:19.408Z</time>
      </trkpt>
      <trkpt lat="48.60319" lon="-3.01194">
        <ele>98</ele>
        <time>2023-01-31T18:03:21.075Z</time>
      </trkpt>
      <trkpt lat="48.60319" lon="-3.01221">
        <ele>98.5</ele>
        <time>2023-01-31T18:03:23.231Z</time>
      </trkpt>
      <trkpt lat="48.60319" lon="-3.01261">
        <ele>98.5</ele>
        <time>2023-01-31T18:03:25.618Z</time>
      </trkpt>
      <trkpt lat="48.6032" lon="-3.01298">
        <ele>98.1</ele>
        <time>2023-01-31T18:03:27.525Z</time>
      </trkpt>
      <trkpt lat="48.60319" lon="-3.01348">
        <ele>98</ele>
        <time>2023-01-31T18:03:30.425Z</time>
      </trkpt>
      <trkpt lat="48.60319" lon="-3.01375">
        <ele>98</ele>
        <time>2023-01-31T18:03:32.036Z</time>
      </trkpt>
      <trkpt lat="48.60319" lon="-3.01393">
        <ele>98</ele>
        <time>2023-01-31T18:03:33.110Z</time>
      </trkpt>
      <trkpt lat="48.60328" lon="-3.01423">
        <ele>98</ele>
        <time>2023-01-31T18:03:35.075Z</time>
      </trkpt>
      <trkpt lat="48.60337" lon="-3.01448">
        <ele>98</ele>
        <time>2023-01-31T18:03:36.774Z</time>
      </trkpt>
      <trkpt lat="48.60342" lon="-3.01465">
        <ele>97.8</ele>
        <time>2023-01-31T18:03:37.732Z</time>
      </trkpt>
      <trkpt lat="48.60353" lon="-3.01484">
        <ele>97.3</ele>
        <time>2023-01-31T18:03:38.896Z</time>
      </trkpt>
      <trkpt lat="48.60363" lon="-3.01505">
        <ele>97</ele>
        <time>2023-01-31T18:03:40.215Z</time>
      </trkpt>
      <trkpt lat="48.60372" lon="-3.01511">
        <ele>97</ele>
        <time>2023-01-31T18:03:41.103Z</time>
      </trkpt>
      <trkpt lat="48.6038" lon="-3.01519">
        <ele>97</ele>
        <time>2023-01-31T18:03:41.968Z</time>
      </trkpt>
      <trkpt lat="48.6039" lon="-3.01528">
        <ele>97</ele>
        <time>2023-01-31T18:03:43.018Z</time>
      </trkpt>
    </trkseg>
  </trk>
</gpx>